sensor_id;sensor_type;location;lat;lon;timestamp;pressure;altitude;pressure_sealevel;temperature;humidity
25130;BME280;13308;50.860;13.664;2024-03-23T05:19:37;95570.34;;;4.74;100.00
25130;BME280;13308;50.860;13.664;2024-03-23T05:22:03;95557.69;;;4.87;100.00
25130;BME280;13308;50.860;13.664;2024-03-23T05:24:28;95559.72;;;5.06;100.00
25130;BME280;13308;50.860;13.664;2024-03-23T05:26:54;95556.19;;;5.09;100.00
25130;BME280;13308;50.860;13.664;2024-03-23T05:29:19;95554.34;;;5.25;100.00
25130;BME280;13308;50.860;13.664;2024-03-23T05:31:49;95527.34;;;5.31;100.00
25130;BME280;13308;50.860;13.664;2024-03-23T05:34:14;95538.50;;;5.40;100.00
25130;BME280;13308;50.860;13.664;2024-03-23T05:36:39;95538.03;;;5.45;100.00
25130;BME280;13308;50.860;13.664;2024-03-23T05:39:05;95541.09;;;5.70;100.00
25130;BME280;13308;50.860;13.664;2024-03-23T05:41:30;95552.91;;;5.90;100.00
25130;BME280;13308;50.860;13.664;2024-03-23T05:43:55;95547.97;;;6.01;100.00
25130;BME280;13308;50.860;13.664;2024-03-23T05:46:21;95541.56;;;6.30;100.00
25130;BME280;13308;50.860;13.664;2024-03-23T05:48:46;95530.19;;;6.32;100.00
25130;BME280;13308;50.860;13.664;2024-03-23T05:51:12;95523.28;;;6.63;100.00
25130;BME280;13308;50.860;13.664;2024-03-23T05:53:37;95518.53;;;6.63;100.00
25130;BME280;13308;50.860;13.664;2024-03-23T05:56:03;95511.69;;;6.55;100.00
25130;BME280;13308;50.860;13.664;2024-03-23T05:58:32;95516.81;;;6.53;100.00
25130;BME280;13308;50.860;13.664;2024-03-23T06:00:58;95511.81;;;6.84;100.00
25130;BME280;13308;50.860;13.664;2024-03-23T06:03:25;95493.53;;;6.97;100.00
25130;BME280;13308;50.860;13.664;2024-03-23T06:05:51;95494.38;;;6.94;100.00
25130;BME280;13308;50.860;13.664;2024-03-23T06:08:18;95499.16;;;6.90;100.00
25130;BME280;13308;50.860;13.664;2024-03-23T06:10:43;95485.47;;;6.90;100.00
25130;BME280;13308;50.860;13.664;2024-03-23T06:13:08;95482.88;;;6.83;100.00
25130;BME280;13308;50.860;13.664;2024-03-23T06:15:34;95480.75;;;6.74;100.00
25130;BME280;13308;50.860;13.664;2024-03-23T06:18:02;95472.38;;;6.97;100.00
25130;BME280;13308;50.860;13.664;2024-03-23T06:20:29;95472.38;;;6.97;100.00
25130;BME280;13308;50.860;13.664;2024-03-23T06:22:54;95466.38;;;7.02;100.00
25130;BME280;13308;50.860;13.664;2024-03-23T06:25:19;95460.31;;;7.11;100.00
25130;BME280;13308;50.860;13.664;2024-03-23T06:27:44;95452.59;;;7.06;100.00
25130;BME280;13308;50.860;13.664;2024-03-23T06:30:10;95444.97;;;6.97;100.00
25130;BME280;13308;50.860;13.664;2024-03-23T06:32:36;95450.53;;;6.94;100.00
25130;BME280;13308;50.860;13.664;2024-03-23T06:35:01;95442.81;;;6.89;100.00
25130;BME280;13308;50.860;13.664;2024-03-23T06:37:33;95430.91;;;6.79;100.00
25130;BME280;13308;50.860;13.664;2024-03-23T06:39:58;95435.63;;;7.27;100.00
25130;BME280;13308;50.860;13.664;2024-03-23T06:42:24;95435.47;;;7.62;100.00
25130;BME280;13308;50.860;13.664;2024-03-23T06:44:49;95435.06;;;8.05;100.00
25130;BME280;13308;50.860;13.664;2024-03-23T06:47:14;95436.91;;;8.24;100.00
25130;BME280;13308;50.860;13.664;2024-03-23T06:49:40;95436.47;;;8.38;100.00
25130;BME280;13308;50.860;13.664;2024-03-23T06:52:05;95433.84;;;8.47;100.00
25130;BME280;13308;50.860;13.664;2024-03-23T06:54:30;95436.19;;;8.48;100.00
25130;BME280;13308;50.860;13.664;2024-03-23T06:56:56;95429.78;;;8.51;100.00
25130;BME280;13308;50.860;13.664;2024-03-23T06:59:21;95425.94;;;8.48;100.00
25130;BME280;13308;50.860;13.664;2024-03-23T07:01:46;95422.31;;;8.52;100.00
25130;BME280;13308;50.860;13.664;2024-03-23T07:04:12;95423.31;;;8.57;100.00
25130;BME280;13308;50.860;13.664;2024-03-23T07:06:43;95408.25;;;8.62;100.00
25130;BME280;13308;50.860;13.664;2024-03-23T07:09:09;95398.56;;;8.70;100.00
25130;BME280;13308;50.860;13.664;2024-03-23T07:11:35;95394.69;;;8.92;100.00
25130;BME280;13308;50.860;13.664;2024-03-23T07:14:00;95377.22;;;8.99;100.00
25130;BME280;13308;50.860;13.664;2024-03-23T07:16:26;95369.56;;;9.15;100.00
25130;BME280;13308;50.860;13.664;2024-03-23T07:18:52;95373.97;;;9.25;100.00
25130;BME280;13308;50.860;13.664;2024-03-23T07:21:17;95365.34;;;9.36;100.00
25130;BME280;13308;50.860;13.664;2024-03-23T07:23:42;95354.69;;;9.59;100.00
25130;BME280;13308;50.860;13.664;2024-03-23T07:26:10;95349.38;;;9.65;100.00
25130;BME280;13308;50.860;13.664;2024-03-23T07:28:35;95348.88;;;9.79;100.00
25130;BME280;13308;50.860;13.664;2024-03-23T07:37:09;95325.16;;;10.33;100.00
25130;BME280;13308;50.860;13.664;2024-03-23T07:39:34;95333.50;;;10.51;100.00
25130;BME280;13308;50.860;13.664;2024-03-23T07:42:00;95318.25;;;10.68;100.00
25130;BME280;13308;50.860;13.664;2024-03-23T07:44:25;95319.97;;;10.84;100.00
25130;BME280;13308;50.860;13.664;2024-03-23T07:46:50;95320.78;;;11.02;100.00
25130;BME280;13308;50.860;13.664;2024-03-23T07:49:16;95316.19;;;11.17;100.00
25130;BME280;13308;50.860;13.664;2024-03-23T07:51:41;95319.91;;;11.32;100.00
25130;BME280;13308;50.860;13.664;2024-03-23T07:54:06;95308.69;;;11.45;100.00
25130;BME280;13308;50.860;13.664;2024-03-23T07:56:32;95301.66;;;11.62;100.00
25130;BME280;13308;50.860;13.664;2024-03-23T07:58:57;95297.53;;;11.66;100.00
25130;BME280;13308;50.860;13.664;2024-03-23T08:01:22;95273.25;;;11.79;100.00
25130;BME280;13308;50.860;13.664;2024-03-23T08:03:49;95278.47;;;11.86;100.00
25130;BME280;13308;50.860;13.664;2024-03-23T08:06:16;95276.78;;;11.89;100.00
25130;BME280;13308;50.860;13.664;2024-03-23T08:08:44;95264.00;;;12.00;100.00
25130;BME280;13308;50.860;13.664;2024-03-23T08:11:10;95271.19;;;12.07;100.00
25130;BME280;13308;50.860;13.664;2024-03-23T08:13:40;95257.81;;;12.14;100.00
25130;BME280;13308;50.860;13.664;2024-03-23T08:16:06;95247.78;;;12.26;100.00
25130;BME280;13308;50.860;13.664;2024-03-23T08:18:32;95253.44;;;12.31;100.00
25130;BME280;13308;50.860;13.664;2024-03-23T08:21:01;95259.38;;;12.39;100.00
25130;BME280;13308;50.860;13.664;2024-03-23T08:23:28;95258.78;;;12.67;100.00
25130;BME280;13308;50.860;13.664;2024-03-23T08:26:00;95248.97;;;13.37;100.00
25130;BME280;13308;50.860;13.664;2024-03-23T08:28:26;95243.84;;;13.73;100.00
25130;BME280;13308;50.860;13.664;2024-03-23T08:30:53;95253.78;;;13.65;100.00
25130;BME280;13308;50.860;13.664;2024-03-23T08:33:18;95256.25;;;13.92;100.00
25130;BME280;13308;50.860;13.664;2024-03-23T08:35:56;95260.84;;;13.95;100.00
25130;BME280;13308;50.860;13.664;2024-03-23T08:38:25;95250.50;;;13.52;100.00
25130;BME280;13308;50.860;13.664;2024-03-23T08:41:01;95257.75;;;13.50;100.00
25130;BME280;13308;50.860;13.664;2024-03-23T08:43:28;95254.34;;;13.69;100.00
25130;BME280;13308;50.860;13.664;2024-03-23T08:46:03;95257.97;;;13.61;100.00
25130;BME280;13308;50.860;13.664;2024-03-23T08:48:28;95255.63;;;13.30;100.00
25130;BME280;13308;50.860;13.664;2024-03-23T08:51:01;95263.28;;;13.12;100.00
25130;BME280;13308;50.860;13.664;2024-03-23T08:53:29;95264.06;;;12.89;100.00
25130;BME280;13308;50.860;13.664;2024-03-23T08:55:56;95274.47;;;12.61;100.00
25130;BME280;13308;50.860;13.664;2024-03-23T08:58:23;95264.75;;;12.42;100.00
25130;BME280;13308;50.860;13.664;2024-03-23T09:00:49;95281.75;;;12.17;100.00
25130;BME280;13308;50.860;13.664;2024-03-23T09:03:14;95266.84;;;12.15;100.00
25130;BME280;13308;50.860;13.664;2024-03-23T09:05:40;95282.53;;;12.09;100.00
25130;BME280;13308;50.860;13.664;2024-03-23T09:08:06;95276.44;;;11.96;100.00
25130;BME280;13308;50.860;13.664;2024-03-23T09:10:31;95289.06;;;11.88;100.00
25130;BME280;13308;50.860;13.664;2024-03-23T09:12:57;95277.25;;;11.78;100.00
25130;BME280;13308;50.860;13.664;2024-03-23T09:15:22;95276.47;;;11.78;100.00
25130;BME280;13308;50.860;13.664;2024-03-23T09:17:47;95277.28;;;11.60;100.00
25130;BME280;13308;50.860;13.664;2024-03-23T09:20:13;95286.44;;;11.48;100.00
25130;BME280;13308;50.860;13.664;2024-03-23T09:22:38;95304.56;;;11.13;100.00
25130;BME280;13308;50.860;13.664;2024-03-23T09:25:04;95327.75;;;10.67;100.00
25130;BME280;13308;50.860;13.664;2024-03-23T09:27:30;95322.28;;;10.06;100.00
25130;BME280;13308;50.860;13.664;2024-03-23T09:29:55;95313.69;;;10.04;100.00
25130;BME280;13308;50.860;13.664;2024-03-23T09:32:21;95317.41;;;10.10;100.00
25130;BME280;13308;50.860;13.664;2024-03-23T09:34:46;95314.69;;;10.19;100.00
25130;BME280;13308;50.860;13.664;2024-03-23T09:37:11;95317.84;;;10.39;100.00
25130;BME280;13308;50.860;13.664;2024-03-23T09:39:37;95316.22;;;10.51;100.00
25130;BME280;13308;50.860;13.664;2024-03-23T09:42:02;95312.09;;;10.64;100.00
25130;BME280;13308;50.860;13.664;2024-03-23T09:44:27;95319.78;;;10.69;100.00
25130;BME280;13308;50.860;13.664;2024-03-23T09:46:55;95333.56;;;10.60;100.00
25130;BME280;13308;50.860;13.664;2024-03-23T09:49:20;95370.53;;;9.98;100.00
25130;BME280;13308;50.860;13.664;2024-03-23T09:51:46;95379.94;;;9.45;100.00
25130;BME280;13308;50.860;13.664;2024-03-23T09:54:11;95383.44;;;9.12;100.00
25130;BME280;13308;50.860;13.664;2024-03-23T09:56:37;95390.72;;;9.06;100.00
25130;BME280;13308;50.860;13.664;2024-03-23T09:59:03;95402.19;;;8.79;100.00
25130;BME280;13308;50.860;13.664;2024-03-23T10:01:31;95416.16;;;8.72;100.00
25130;BME280;13308;50.860;13.664;2024-03-23T10:03:57;95451.88;;;8.48;100.00
25130;BME280;13308;50.860;13.664;2024-03-23T10:06:22;95466.59;;;8.13;100.00
25130;BME280;13308;50.860;13.664;2024-03-23T10:08:50;95483.00;;;7.88;100.00
25130;BME280;13308;50.860;13.664;2024-03-23T10:11:16;95485.56;;;7.79;100.00
25130;BME280;13308;50.860;13.664;2024-03-23T10:13:43;95473.97;;;7.59;100.00
25130;BME280;13308;50.860;13.664;2024-03-23T10:16:09;95510.84;;;7.26;100.00
25130;BME280;13308;50.860;13.664;2024-03-23T10:18:39;95516.31;;;6.94;100.00
25130;BME280;13308;50.860;13.664;2024-03-23T10:21:09;95531.16;;;6.77;100.00
25130;BME280;13308;50.860;13.664;2024-03-23T10:23:37;95555.81;;;6.77;100.00
25130;BME280;13308;50.860;13.664;2024-03-23T10:26:22;95573.06;;;6.38;100.00
25130;BME280;13308;50.860;13.664;2024-03-23T10:29:01;95573.66;;;6.07;100.00
25130;BME280;13308;50.860;13.664;2024-03-23T10:31:28;95597.75;;;5.96;100.00
25130;BME280;13308;50.860;13.664;2024-03-23T10:33:54;95613.22;;;5.79;100.00
25130;BME280;13308;50.860;13.664;2024-03-23T10:36:21;95634.94;;;5.67;100.00
25130;BME280;13308;50.860;13.664;2024-03-23T10:38:47;95659.75;;;5.53;100.00
25130;BME280;13308;50.860;13.664;2024-03-23T10:41:12;95670.75;;;5.49;100.00
25130;BME280;13308;50.860;13.664;2024-03-23T10:43:38;95670.03;;;5.45;100.00
25130;BME280;13308;50.860;13.664;2024-03-23T10:46:04;95700.28;;;5.31;100.00
25130;BME280;13308;50.860;13.664;2024-03-23T10:48:31;95716.41;;;5.26;100.00
25130;BME280;13308;50.860;13.664;2024-03-23T10:50:57;95711.47;;;5.14;100.00
25130;BME280;13308;50.860;13.664;2024-03-23T10:53:25;95723.22;;;5.11;100.00
25130;BME280;13308;50.860;13.664;2024-03-23T10:55:51;95727.88;;;5.14;100.00
25130;BME280;13308;50.860;13.664;2024-03-23T10:58:19;95747.97;;;4.97;100.00
25130;BME280;13308;50.860;13.664;2024-03-23T11:00:47;95742.97;;;4.92;100.00
25130;BME280;13308;50.860;13.664;2024-03-23T11:03:31;95750.91;;;5.13;100.00
25130;BME280;13308;50.860;13.664;2024-03-23T11:05:57;95739.16;;;5.16;100.00
25130;BME280;13308;50.860;13.664;2024-03-23T11:13:39;95724.88;;;5.88;100.00
25130;BME280;13308;50.860;13.664;2024-03-23T11:16:36;95728.00;;;6.13;100.00
25130;BME280;13308;50.860;13.664;2024-03-23T11:19:38;95738.13;;;6.62;100.00
25130;BME280;13308;50.860;13.664;2024-03-23T11:22:05;95747.28;;;6.06;100.00
25130;BME280;13308;50.860;13.664;2024-03-23T11:24:31;95749.97;;;5.83;100.00
25130;BME280;13308;50.860;13.664;2024-03-23T11:26:57;95747.97;;;5.57;100.00
25130;BME280;13308;50.860;13.664;2024-03-23T11:29:27;95768.53;;;5.42;100.00
25130;BME280;13308;50.860;13.664;2024-03-23T11:31:53;95786.38;;;4.83;100.00
25130;BME280;13308;50.860;13.664;2024-03-23T11:34:21;95781.91;;;4.99;100.00
25130;BME280;13308;50.860;13.664;2024-03-23T11:36:47;95783.66;;;4.83;100.00
25130;BME280;13308;50.860;13.664;2024-03-23T11:39:17;95796.41;;;4.93;100.00
25130;BME280;13308;50.860;13.664;2024-03-23T11:41:50;95798.94;;;4.77;100.00
25130;BME280;13308;50.860;13.664;2024-03-23T11:44:23;95802.19;;;4.65;100.00
25130;BME280;13308;50.860;13.664;2024-03-23T11:46:49;95799.78;;;4.70;100.00
25130;BME280;13308;50.860;13.664;2024-03-23T11:49:28;95793.41;;;4.84;100.00
25130;BME280;13308;50.860;13.664;2024-03-23T11:51:55;95795.56;;;4.62;100.00
25130;BME280;13308;50.860;13.664;2024-03-23T11:54:22;95793.75;;;4.86;100.00
25130;BME280;13308;50.860;13.664;2024-03-23T11:57:13;95796.25;;;4.70;100.00
25130;BME280;13308;50.860;13.664;2024-03-23T11:59:40;95791.34;;;4.95;100.00
25130;BME280;13308;50.860;13.664;2024-03-23T12:02:10;95793.81;;;5.16;100.00
25130;BME280;13308;50.860;13.664;2024-03-23T12:04:40;95791.72;;;4.93;100.00
25130;BME280;13308;50.860;13.664;2024-03-23T12:07:19;95785.63;;;5.16;100.00
25130;BME280;13308;50.860;13.664;2024-03-23T12:09:45;95789.22;;;5.06;100.00
25130;BME280;13308;50.860;13.664;2024-03-23T12:14:36;95790.81;;;5.07;100.00
25130;BME280;13308;50.860;13.664;2024-03-23T12:17:16;95790.41;;;5.05;100.00
25130;BME280;13308;50.860;13.664;2024-03-23T12:19:42;95802.41;;;5.18;100.00
25130;BME280;13308;50.860;13.664;2024-03-23T12:22:08;95799.03;;;5.37;100.00
25130;BME280;13308;50.860;13.664;2024-03-23T12:24:34;95795.28;;;5.24;100.00
25130;BME280;13308;50.860;13.664;2024-03-23T12:27:01;95816.81;;;5.52;100.00
25130;BME280;13308;50.860;13.664;2024-03-23T12:29:31;95806.25;;;5.54;100.00
25130;BME280;13308;50.860;13.664;2024-03-23T12:31:59;95781.16;;;5.89;100.00
25130;BME280;13308;50.860;13.664;2024-03-23T12:34:24;95771.56;;;6.04;100.00
25130;BME280;13308;50.860;13.664;2024-03-23T12:36:50;95793.63;;;5.63;100.00
25130;BME280;13308;50.860;13.664;2024-03-23T12:39:15;95804.31;;;5.51;100.00
25130;BME280;13308;50.860;13.664;2024-03-23T12:41:40;95813.34;;;5.14;100.00
25130;BME280;13308;50.860;13.664;2024-03-23T12:44:06;95820.47;;;5.42;100.00
25130;BME280;13308;50.860;13.664;2024-03-23T12:46:33;95824.81;;;5.36;100.00
25130;BME280;13308;50.860;13.664;2024-03-23T12:48:58;95826.09;;;5.58;100.00
25130;BME280;13308;50.860;13.664;2024-03-23T12:51:24;95837.03;;;5.58;100.00
25130;BME280;13308;50.860;13.664;2024-03-23T12:53:50;95841.28;;;5.29;100.00
25130;BME280;13308;50.860;13.664;2024-03-23T12:56:15;95845.50;;;5.00;100.00
25130;BME280;13308;50.860;13.664;2024-03-23T12:58:40;95813.81;;;5.06;100.00
25130;BME280;13308;50.860;13.664;2024-03-23T13:01:05;95803.09;;;4.88;100.00
25130;BME280;13308;50.860;13.664;2024-03-23T13:03:31;95802.97;;;4.99;100.00
25130;BME280;13308;50.860;13.664;2024-03-23T13:05:56;95809.50;;;5.12;100.00
25130;BME280;13308;50.860;13.664;2024-03-23T13:08:22;95818.00;;;5.17;100.00
25130;BME280;13308;50.860;13.664;2024-03-23T13:10:47;95821.88;;;5.20;100.00
25130;BME280;13308;50.860;13.664;2024-03-23T13:13:12;95829.25;;;5.23;100.00
25130;BME280;13308;50.860;13.664;2024-03-23T13:15:38;95862.66;;;5.04;100.00
25130;BME280;13308;50.860;13.664;2024-03-23T13:18:03;95877.50;;;5.03;100.00
25130;BME280;13308;50.860;13.664;2024-03-23T13:20:28;95899.53;;;4.82;100.00
25130;BME280;13308;50.860;13.664;2024-03-23T13:22:54;95907.38;;;4.76;100.00
25130;BME280;13308;50.860;13.664;2024-03-23T13:25:19;95909.66;;;4.85;100.00
25130;BME280;13308;50.860;13.664;2024-03-23T13:27:44;95901.09;;;4.83;100.00
25130;BME280;13308;50.860;13.664;2024-03-23T13:30:10;95914.44;;;4.74;100.00
25130;BME280;13308;50.860;13.664;2024-03-23T13:32:36;95911.22;;;4.86;100.00
25130;BME280;13308;50.860;13.664;2024-03-23T13:35:01;95900.22;;;4.93;100.00
25130;BME280;13308;50.860;13.664;2024-03-23T13:37:26;95895.59;;;4.86;100.00
25130;BME280;13308;50.860;13.664;2024-03-23T13:39:52;95889.59;;;5.02;100.00
25130;BME280;13308;50.860;13.664;2024-03-23T13:42:17;95881.50;;;5.32;100.00
25130;BME280;13308;50.860;13.664;2024-03-23T13:44:43;95883.63;;;5.51;100.00
25130;BME280;13308;50.860;13.664;2024-03-23T13:47:08;95885.00;;;5.66;100.00
25130;BME280;13308;50.860;13.664;2024-03-23T13:49:33;95875.06;;;5.82;100.00
25130;BME280;13308;50.860;13.664;2024-03-23T13:51:59;95872.09;;;6.76;100.00
25130;BME280;13308;50.860;13.664;2024-03-23T13:54:28;95844.81;;;7.73;100.00
25130;BME280;13308;50.860;13.664;2024-03-23T13:56:56;95854.91;;;7.18;100.00
25130;BME280;13308;50.860;13.664;2024-03-23T13:59:22;95836.50;;;7.38;100.00
25130;BME280;13308;50.860;13.664;2024-03-23T14:01:51;95842.66;;;7.65;100.00
25130;BME280;13308;50.860;13.664;2024-03-23T14:04:17;95867.06;;;7.40;100.00
25130;BME280;13308;50.860;13.664;2024-03-23T14:06:44;95865.56;;;6.93;100.00
25130;BME280;13308;50.860;13.664;2024-03-23T14:09:11;95871.41;;;7.96;100.00
25130;BME280;13308;50.860;13.664;2024-03-23T14:11:37;95889.22;;;8.43;100.00
25130;BME280;13308;50.860;13.664;2024-03-23T14:14:03;95884.50;;;7.88;100.00
25130;BME280;13308;50.860;13.664;2024-03-23T14:16:31;95892.00;;;9.22;100.00
25130;BME280;13308;50.860;13.664;2024-03-23T14:18:57;95894.25;;;8.79;100.00
25130;BME280;13308;50.860;13.664;2024-03-23T14:21:22;95889.94;;;7.92;100.00
25130;BME280;13308;50.860;13.664;2024-03-23T14:23:47;95880.66;;;7.24;100.00
25130;BME280;13308;50.860;13.664;2024-03-23T14:26:13;95872.03;;;7.84;100.00
25130;BME280;13308;50.860;13.664;2024-03-23T14:28:38;95867.66;;;8.25;100.00
25130;BME280;13308;50.860;13.664;2024-03-23T14:31:04;95861.38;;;7.70;100.00
25130;BME280;13308;50.860;13.664;2024-03-23T14:33:36;95861.88;;;7.22;100.00
25130;BME280;13308;50.860;13.664;2024-03-23T14:36:03;95862.34;;;8.14;100.00
25130;BME280;13308;50.860;13.664;2024-03-23T14:38:29;95849.03;;;8.80;100.00
25130;BME280;13308;50.860;13.664;2024-03-23T14:40:58;95852.25;;;7.73;100.00
25130;BME280;13308;50.860;13.664;2024-03-23T14:43:24;95859.69;;;7.14;100.00
25130;BME280;13308;50.860;13.664;2024-03-23T14:48:36;95830.78;;;6.67;100.00
25130;BME280;13308;50.860;13.664;2024-03-23T14:51:02;95841.63;;;6.74;100.00
25130;BME280;13308;50.860;13.664;2024-03-23T14:53:39;95832.44;;;6.61;100.00
25130;BME280;13308;50.860;13.664;2024-03-23T14:56:06;95831.97;;;6.43;100.00
25130;BME280;13308;50.860;13.664;2024-03-23T14:58:31;95840.53;;;6.45;100.00
25130;BME280;13308;50.860;13.664;2024-03-23T15:01:03;95836.09;;;6.28;100.00
25130;BME280;13308;50.860;13.664;2024-03-23T15:03:29;95834.44;;;6.34;100.00
25130;BME280;13308;50.860;13.664;2024-03-23T15:05:58;95831.03;;;6.26;100.00
25130;BME280;13308;50.860;13.664;2024-03-23T15:08:25;95835.91;;;6.38;100.00
25130;BME280;13308;50.860;13.664;2024-03-23T15:10:51;95827.41;;;6.33;100.00
25130;BME280;13308;50.860;13.664;2024-03-23T15:13:16;95825.88;;;6.32;100.00
25130;BME280;13308;50.860;13.664;2024-03-23T15:15:42;95839.19;;;6.30;100.00
25130;BME280;13308;50.860;13.664;2024-03-23T15:18:13;95831.66;;;6.11;100.00
25130;BME280;13308;50.860;13.664;2024-03-23T15:20:40;95834.28;;;6.18;100.00
25130;BME280;13308;50.860;13.664;2024-03-23T15:23:06;95837.84;;;6.15;100.00
25130;BME280;13308;50.860;13.664;2024-03-23T15:25:31;95828.09;;;6.14;100.00
25130;BME280;13308;50.860;13.664;2024-03-23T15:27:57;95815.38;;;6.27;100.00
25130;BME280;13308;50.860;13.664;2024-03-23T15:30:24;95826.09;;;6.41;100.00
25130;BME280;13308;50.860;13.664;2024-03-23T15:32:49;95835.00;;;6.48;100.00
25130;BME280;13308;50.860;13.664;2024-03-23T15:35:14;95831.00;;;6.53;100.00
25130;BME280;13308;50.860;13.664;2024-03-23T15:37:40;95826.59;;;6.59;100.00
25130;BME280;13308;50.860;13.664;2024-03-23T15:40:06;95827.44;;;6.56;100.00
25130;BME280;13308;50.860;13.664;2024-03-23T15:42:32;95827.19;;;6.70;100.00
25130;BME280;13308;50.860;13.664;2024-03-23T15:44:57;95832.31;;;6.68;100.00
25130;BME280;13308;50.860;13.664;2024-03-23T15:47:22;95832.69;;;6.70;100.00
25130;BME280;13308;50.860;13.664;2024-03-23T15:49:49;95816.00;;;6.61;100.00
25130;BME280;13308;50.860;13.664;2024-03-23T15:52:15;95821.00;;;6.66;100.00
25130;BME280;13308;50.860;13.664;2024-03-23T15:54:40;95825.66;;;6.69;100.00
25130;BME280;13308;50.860;13.664;2024-03-23T15:57:05;95810.75;;;6.70;100.00
25130;BME280;13308;50.860;13.664;2024-03-23T15:59:32;95812.72;;;6.69;100.00
25130;BME280;13308;50.860;13.664;2024-03-23T16:01:57;95813.38;;;6.77;100.00
25130;BME280;13308;50.860;13.664;2024-03-23T16:04:22;95811.94;;;6.92;100.00
25130;BME280;13308;50.860;13.664;2024-03-23T16:06:48;95809.53;;;6.94;100.00
25130;BME280;13308;50.860;13.664;2024-03-23T16:09:13;95818.63;;;6.91;100.00
25130;BME280;13308;50.860;13.664;2024-03-23T16:11:39;95816.56;;;6.95;100.00
25130;BME280;13308;50.860;13.664;2024-03-23T16:14:04;95810.41;;;6.91;100.00
25130;BME280;13308;50.860;13.664;2024-03-23T16:16:29;95814.50;;;6.79;100.00
25130;BME280;13308;50.860;13.664;2024-03-23T16:18:55;95815.56;;;6.85;100.00
25130;BME280;13308;50.860;13.664;2024-03-23T16:21:21;95821.69;;;6.93;100.00
25130;BME280;13308;50.860;13.664;2024-03-23T16:23:46;95819.19;;;7.02;100.00
25130;BME280;13308;50.860;13.664;2024-03-23T16:26:12;95823.13;;;7.01;100.00
25130;BME280;13308;50.860;13.664;2024-03-23T16:28:37;95834.09;;;7.01;100.00
25130;BME280;13308;50.860;13.664;2024-03-23T16:31:07;95825.81;;;6.81;100.00
25130;BME280;13308;50.860;13.664;2024-03-23T16:33:34;95822.66;;;6.83;100.00
25130;BME280;13308;50.860;13.664;2024-03-23T16:36:01;95809.44;;;6.78;100.00
25130;BME280;13308;50.860;13.664;2024-03-23T16:38:27;95807.13;;;6.76;100.00
25130;BME280;13308;50.860;13.664;2024-03-23T16:40:54;95809.19;;;6.92;100.00
25130;BME280;13308;50.860;13.664;2024-03-23T16:43:20;95820.41;;;6.78;100.00
25130;BME280;13308;50.860;13.664;2024-03-23T16:45:58;95823.25;;;6.71;100.00
25130;BME280;13308;50.860;13.664;2024-03-23T16:48:24;95836.72;;;6.62;100.00
25130;BME280;13308;50.860;13.664;2024-03-23T16:50:51;95848.22;;;6.53;100.00
25130;BME280;13308;50.860;13.664;2024-03-23T16:53:16;95846.19;;;6.34;100.00
25130;BME280;13308;50.860;13.664;2024-03-23T16:55:42;95873.03;;;6.16;100.00
25130;BME280;13308;50.860;13.664;2024-03-23T16:58:07;95869.44;;;5.93;100.00
25130;BME280;13308;50.860;13.664;2024-03-23T17:00:34;95871.56;;;5.78;100.00
25130;BME280;13308;50.860;13.664;2024-03-23T17:02:59;95856.47;;;5.67;100.00
25130;BME280;13308;50.860;13.664;2024-03-23T17:05:25;95868.34;;;5.53;100.00
25130;BME280;13308;50.860;13.664;2024-03-23T17:07:50;95872.03;;;5.40;100.00
25130;BME280;13308;50.860;13.664;2024-03-23T17:10:15;95877.22;;;5.31;100.00
25130;BME280;13308;50.860;13.664;2024-03-23T17:12:41;95885.09;;;5.22;100.00
25130;BME280;13308;50.860;13.664;2024-03-23T17:15:06;95886.44;;;5.07;100.00
25130;BME280;13308;50.860;13.664;2024-03-23T17:17:32;95884.50;;;5.04;100.00
25130;BME280;13308;50.860;13.664;2024-03-23T17:20:01;95872.91;;;4.93;100.00
25130;BME280;13308;50.860;13.664;2024-03-23T17:22:27;95869.38;;;4.96;100.00
25130;BME280;13308;50.860;13.664;2024-03-23T17:24:53;95871.34;;;4.92;100.00
25130;BME280;13308;50.860;13.664;2024-03-23T17:27:18;95866.25;;;4.94;100.00
25130;BME280;13308;50.860;13.664;2024-03-23T17:29:44;95870.56;;;4.95;100.00
25130;BME280;13308;50.860;13.664;2024-03-23T17:32:11;95867.53;;;4.82;100.00
25130;BME280;13308;50.860;13.664;2024-03-23T17:34:36;95862.66;;;4.63;100.00
25130;BME280;13308;50.860;13.664;2024-03-23T17:37:01;95862.97;;;4.69;100.00
25130;BME280;13308;50.860;13.664;2024-03-23T17:39:27;95864.69;;;4.52;100.00
25130;BME280;13308;50.860;13.664;2024-03-23T17:41:55;95856.03;;;4.61;100.00
25130;BME280;13308;50.860;13.664;2024-03-23T17:44:20;95856.59;;;4.42;100.00
25130;BME280;13308;50.860;13.664;2024-03-23T17:46:45;95850.84;;;4.26;100.00
25130;BME280;13308;50.860;13.664;2024-03-23T17:49:11;95849.75;;;4.16;100.00
25130;BME280;13308;50.860;13.664;2024-03-23T17:51:36;95843.13;;;4.14;100.00
25130;BME280;13308;50.860;13.664;2024-03-23T17:54:01;95855.28;;;4.06;100.00
25130;BME280;13308;50.860;13.664;2024-03-23T17:56:27;95868.22;;;3.91;100.00
25130;BME280;13308;50.860;13.664;2024-03-23T17:58:52;95869.81;;;3.89;100.00
25130;BME280;13308;50.860;13.664;2024-03-23T18:01:17;95860.78;;;3.95;100.00
25130;BME280;13308;50.860;13.664;2024-03-23T18:03:51;95862.81;;;3.88;100.00
25130;BME280;13308;50.860;13.664;2024-03-23T18:06:16;95867.84;;;3.89;100.00
25130;BME280;13308;50.860;13.664;2024-03-23T18:08:41;95867.50;;;3.84;100.00
25130;BME280;13308;50.860;13.664;2024-03-23T18:11:08;95871.47;;;3.72;100.00
25130;BME280;13308;50.860;13.664;2024-03-23T18:13:34;95871.41;;;3.83;100.00
25130;BME280;13308;50.860;13.664;2024-03-23T18:15:59;95873.03;;;3.70;100.00
25130;BME280;13308;50.860;13.664;2024-03-23T18:18:24;95874.91;;;3.76;100.00
25130;BME280;13308;50.860;13.664;2024-03-23T18:20:51;95876.47;;;3.77;100.00